Station: Coonawarra

  Atmospheric Gas Attenuation - ITU Rec 676-11   --------------- db/100km ---------------
Date Time Temp RH % AH g/m3 Dew Point Wind Direction Speed kph Gust kph Barometer mB Rainfall Since 9am 24GHz 47GHz 76GHz 122GHz 134GHz 241GHz
27 12:40 14.4 45 5.56 2.7 13 15 1026.4 0 13.1 21.6 28.6 74.3 60.8 206.4
27 12:30 14.3 46 5.65 2.8 9 19 1026.6 0 13.3 21.7 28.9 75.2 61.9 210.4
27 12:20 13.6 51 6 3.6 7 9 1026.7 0 14.1 22.4 30.5 79.3 66.7 227.0
27 12:10 13.5 50 5.85 3.4 7 9 1026.9 0 13.8 22.2 30.0 77.9 64.9 221.0
27 12:00 13.8 52 6.2 4.1 11 17 1027 0 14.5 22.7 31.1 81.1 68.9 235.0
27 11:50 13.9 52 6.23 4.3 7 9 1027 0 14.5 22.7 31.2 81.3 69.2 236.0
27 11:40 14.1 55 6.68 5.3 11 13 1027.1 0 15.5 23.3 32.8 85.6 74.5 254.8
27 11:30 13.8 59 7.03 6 7 11 1027.2 0 16.2 23.9 34.3 89.4 79.2 271.1
27 11:20 13.2 60 6.89 5.7 9 9 1027.3 0 16.0 23.9 34.0 88.7 78.1 266.9
27 11:10 12.9 60 6.76 5.4 11 13 1027.3 0 15.7 23.8 33.6 87.7 76.7 262.2
27 11:00 13.4 59 6.86 5.7 7 15 1027.4 0 15.9 23.8 33.8 88.2 77.5 265.0
27 10:50 13.8 59 7.03 6 9 15 1027.4 0 16.2 23.9 34.3 89.4 79.2 271.1
27 10:40 13.1 60 6.85 5.6 4 6 1027.4 0 15.9 23.8 33.9 88.4 77.7 265.5
27 10:30 13.2 62 7.12 6.2 7 15 1027.4 0 16.5 24.2 34.9 91.0 81.0 277.2
27 10:20 12.4 63 6.88 5.5 7 9 1027.5 0 16.0 24.1 34.3 89.5 78.7 269.2
27 10:10 12.8 69 7.73 7.2 9 11 1027.6 0 17.8 25.3 37.4 97.9 89.3 306.3
27 10:00 11.8 69 7.26 6.3 11 15 1027.6 0 16.8 24.8 36.0 94.2 84.3 288.5
27 09:50 11.8 67 7.05 6 13 15 1027.6 0 16.4 24.5 35.2 91.9 81.5 279.0
27 09:40 11.8 70 7.37 6.5 9 11 1027.6 0 17.0 25.0 36.5 95.3 85.7 293.6
27 09:30 12 69 7.35 6.5 11 17 1027.6 0 17.0 24.9 36.3 94.9 85.2 291.9
27 09:20 12 70 7.46 6.7 13 15 1027.6 0 17.2 25.1 36.7 96.0 86.7 297.0
27 09:10 11.7 73 7.64 7.1 11 13 1027.5 0 17.6 25.5 37.6 98.3 89.4 306.4
27 09:00 10.6 78 7.61 7 13 19 1027.5 0 17.6 25.7 38.0 99.4 90.2 309.3
27 08:50 10.9 80 7.96 7.6 13 13 1027.4 0.6 18.3 26.2 39.3 102.8 94.6 324.6
27 08:40 11.2 82 8.31 8.3 11 11 1027.3 0.6 19.1 26.7 40.6 106.3 99.0 340.0
27 08:30 10.4 86 8.29 8.1 11 15 1027.2 0.6 19.1 26.9 40.9 107.1 99.7 342.5
27 08:20 9.9 89 8.31 8.2 11 13 1027.1 0.6 19.1 27.1 41.2 108.0 100.6 345.6
27 08:10 9.5 92 8.38 8.3 9 9 1027 0.6 19.3 27.3 41.7 109.4 102.1 350.8
27 08:00 9.3 93 8.36 8.3 7 11 1026.9 0.6 19.3 27.4 41.8 109.4 102.1 350.7
27 07:50 9.1 96 8.52 8.5 7 7 1026.7 0.6 19.6 27.7 42.5 111.5 104.6 359.5
27 07:40 8.8 96 8.36 8.2 7 7 1026.6 0.6 19.3 27.5 42.0 110.1 102.8 352.9
27 07:30 8.5 97 8.28 8.1 6 9 1026.5 0.6 19.1 27.5 41.8 109.6 102.0 350.3
27 07:20 8.6 97 8.34 8.2 4 7 1026.4 0.6 19.3 27.5 42.0 110.1 102.7 352.7
27 07:10 8.3 97 8.18 7.9 7 7 1026.3 0.6 18.9 27.3 41.5 108.7 100.8 346.1
27 07:00 7.8 97 7.92 7.4 0 0 1026.2 0.6 18.4 27.1 40.6 106.4 97.8 335.4
27 06:50 7.6 95 7.66 6.9 0 0 1025.9 0.6 17.9 26.7 39.6 103.7 94.4 323.4
27 06:40 7.3 97 7.67 6.9 0 0 1025.7 0.6 17.9 26.8 39.8 104.1 94.9 325.1
27 06:30 7.1 97 7.57 6.7 0 0 1025.5 0.6 17.7 26.6 39.4 103.3 93.7 321.0
27 06:20 6.8 97 7.42 6.4 0 0 1025.2 0.6 17.4 26.5 38.9 101.9 91.9 314.7
27 06:10 6.6 97 7.33 6.2 2 4 1025.1 0.6 17.2 26.4 38.7 101.1 90.9 311.1
27 06:00 6.5 97 7.28 6.1 6 7 1024.9 0.6 17.1 26.3 38.5 100.7 90.3 309.0
27 05:50 6.4 97 7.23 6 7 7 1024.7 0.6 17.0 26.2 38.3 100.2 89.7 306.9
27 05:40 6.5 97 7.28 6.1 2 7 1024.5 0.6 17.1 26.3 38.5 100.6 90.3 308.9
27 05:30 6.3 97 7.18 5.9 0 0 1024.4 0.4 16.9 26.2 38.1 99.8 89.1 304.7
27 05:10 6 97 7.04 5.5 0 0 1024.1 0.4 16.6 26.0 37.7 98.5 87.5 299.0
27 04:40 6.4 99 7.38 6.2 4 6 1023.6 0.4 17.3 26.4 38.9 101.8 91.7 314.0
27 04:30 6.4 97 7.23 6 6 9 1023.6 0.4 17.0 26.2 38.3 100.1 89.6 306.6
27 04:20 6.3 97 7.18 5.9 7 9 1023.5 0.4 16.9 26.1 38.1 99.7 89.0 304.5
27 04:10 5.7 97 6.91 5.2 7 7 1023.4 0.4 16.3 25.8 37.2 97.4 85.9 293.6
27 04:00 6.2 97 7.14 5.7 6 7 1023.3 0.4 16.8 26.1 38.0 99.3 88.6 302.9
27 03:50 6.2 97 7.14 5.7 6 7 1023.1 0.4 16.8 26.1 38.0 99.3 88.6 302.8
27 03:40 6.1 97 7.09 5.6 7 7 1023 0.4 16.7 26.0 37.8 98.8 88.0 300.8
27 03:30 5.9 97 7 5.4 6 7 1023 0.4 16.5 25.9 37.5 98.1 86.9 297.1
27 03:20 5.6 97 6.86 5.1 6 7 1022.9 0.4 16.2 25.8 37.0 96.9 85.3 291.4
27 03:10 5.5 97 6.82 5 6 7 1022.9 0.4 16.1 25.7 36.9 96.5 84.9 289.8
27 03:00 5.1 97 6.64 4.6 7 7 1022.8 0.4 15.8 25.5 36.3 95.0 82.8 282.5
27 02:50 5.3 97 6.73 4.8 7 7 1022.7 0.4 15.9 25.6 36.6 95.7 83.8 286.1
27 02:40 5.1 99 6.78 4.9 7 9 1022.7 0.4 16.1 25.8 36.9 96.6 84.7 289.3
27 02:30 5.2 99 6.82 5 6 7 1022.7 0.4 16.1 25.8 37.1 96.9 85.2 290.9
27 02:20 5.5 97 6.82 5 6 7 1022.6 0.4 16.1 25.7 36.9 96.5 84.8 289.8
27 02:10 5.6 95 6.72 4.9 9 9 1022.6 0.4 15.9 25.5 36.4 95.3 83.3 284.5
27 02:00 5.4 97 6.77 4.9 9 9 1022.7 0.4 16.0 25.7 36.7 96.1 84.3 287.7
27 01:50 5.5 97 6.82 5 7 7 1022.7 0.4 16.1 25.7 36.9 96.5 84.9 289.8
27 01:40 5.9 97 7 5.4 7 9 1022.7 0.4 16.5 25.9 37.5 98.0 86.9 297.1
27 01:30 6.1 97 7.09 5.6 7 9 1022.8 0.4 16.7 26.0 37.8 98.8 88.0 300.7
27 01:20 6.4 97 7.23 6 4 6 1022.8 0.4 17.0 26.2 38.2 100.0 89.6 306.4
27 01:10 6.2 95 6.99 5.5 7 9 1022.9 0.2 16.5 25.8 37.3 97.6 86.5 295.5
27 01:00 6 95 6.9 5.3 0 0 1022.9 0.2 16.3 25.7 37.0 96.8 85.4 291.9
27 00:50 5.6 99 7 5.4 0 0 1022.8 0.2 16.5 26.0 37.6 98.4 87.3 298.2
27 00:40 5.9 97 7 5.4 0 0 1022.8 0.2 16.5 25.9 37.5 98.1 86.9 297.1
27 00:30 6 97 7.04 5.5 6 9 1022.8 0.2 16.6 25.9 37.6 98.4 87.4 298.7
27 00:20 6.3 97 7.18 5.9 6 7 1022.8 0.2 16.9 26.1 38.1 99.6 89.0 304.3
27 00:10 6.3 94 6.96 5.4 11 13 1022.8 0.2 16.4 25.7 37.1 97.1 85.9 293.6
27 00:00 5.7 97 6.91 5.2 9 11 1022.8 0.2 16.3 25.8 37.2 97.3 85.9 293.5
26 23:50 6 97 7.04 5.5 7 9 1022.7 0.2 16.6 25.9 37.6 98.4 87.4 298.6
26 23:40 6.4 95 7.08 5.7 11 11 1022.7 0.2 16.7 25.9 37.6 98.3 87.5 299.0
26 23:30 6.4 95 7.08 5.7 9 11 1022.7 0.2 16.7 25.9 37.6 98.3 87.5 299.0
26 23:20 6.7 97 7.37 6.3 9 9 1022.7 0.2 17.3 26.3 38.7 101.2 91.2 312.0
26 23:10 7 95 7.36 6.3 11 11 1022.8 0.2 17.2 26.2 38.5 100.7 90.7 310.4
26 23:00 7.2 95 7.46 6.5 11 13 1022.8 0.2 17.4 26.3 38.8 101.6 91.8 314.4
26 22:50 7.5 94 7.53 6.6 11 13 1022.9 0.2 17.6 26.3 39.0 102.0 92.4 316.7
26 22:40 7.5 95 7.61 6.8 7 7 1023 0.2 17.8 26.5 39.3 102.9 93.6 320.6
26 22:30 7.5 95 7.61 6.8 7 11 1023 0.2 17.8 26.5 39.3 102.9 93.6 320.6
26 22:20 7.8 94 7.67 6.9 9 11 1023 0.2 17.9 26.5 39.4 103.2 94.0 322.3
26 22:10 7.8 94 7.67 6.9 9 11 1022.9 0.2 17.9 26.5 39.4 103.2 94.0 322.3
26 22:00 7.6 94 7.58 6.7 9 13 1023 0.2 17.7 26.4 39.1 102.4 93.0 318.7
26 21:50 7.5 94 7.53 6.6 7 9 1022.8 0.2 17.6 26.3 39.0 102.0 92.4 316.6
26 21:40 7.5 94 7.53 6.6 7 9 1022.8 0.2 17.6 26.3 39.0 102.0 92.4 316.6
26 21:30 7.3 93 7.35 6.2 9 11 1022.8 0.2 17.2 26.1 38.3 100.2 90.2 308.7
26 21:20 7 93 7.21 5.9 9 9 1022.8 0.2 16.9 25.9 37.8 99.0 88.6 303.1
26 21:10 7 93 7.21 5.9 6 7 1022.6 0.2 16.9 25.9 37.8 99.0 88.6 303.0
26 21:00 7.2 93 7.3 6.1 7 9 1022.5 0.2 17.1 26.0 38.1 99.8 89.6 306.6
26 20:50 7.6 91 7.33 6.3 7 7 1022.6 0.2 17.1 26.0 38.1 99.6 89.5 306.5
26 20:40 7.7 91 7.38 6.4 6 7 1022.6 0.2 17.2 26.0 38.2 100.0 90.1 308.5
26 20:30 7.7 91 7.38 6.4 7 11 1022.5 0.2 17.2 26.0 38.2 100.0 90.1 308.5
26 20:20 7.7 91 7.38 6.4 13 13 1022.6 0.2 17.2 26.0 38.2 100.0 90.1 308.5
26 20:10 7.7 90 7.3 6.2 9 11 1022.4 0.2 17.1 25.9 37.9 99.1 89.0 304.6
26 20:00 7.5 90 7.21 5.9 11 15 1022.3 0.2 16.9 25.8 37.6 98.3 88.0 301.0
26 19:50 7.4 91 7.24 6.1 11 11 1022.1 0.2 17.0 25.9 37.8 98.8 88.5 302.8
26 19:40 7.7 90 7.3 6.2 11 11 1022.1 0.2 17.1 25.9 37.9 99.1 89.0 304.5

Last Refresh: 27-Sep-2020 12:51:59

Most of the information presented on this site is sourced from the Bureau of Meteorology.  Copyright in all material sourced from the Bureau of Meteorology resides with the Commonwealth of Australia.